Time;durP1;ratioP1;P1;durP2;ratioP2;P2;SDS_P1;SDS_P2;PMS_P1;PMS_P2;Temp;Humidity;BMP_temperature;BMP_pressure;BME280_temperature;BME280_humidity;BME280_pressure;Samples;Min_cycle;Max_cycle;Signal;HPM_P1;HPM_P2
2021/12/30 00:00:20;;;;;;;;;;;10.40;99.90;;;;;;5028980;28;19919;-68
2021/12/30 00:02:46;;;;;;;;;;;10.40;99.90;;;;;;5014617;28;20359;-69
2021/12/30 00:05:12;;;;;;;;;;;10.40;99.90;;;;;;5032240;28;19917;-69
2021/12/30 00:07:37;;;;;;;;;;;10.50;99.90;;;;;;5028276;28;19919;-70
2021/12/30 00:10:03;;;;;;;;;;;10.50;99.90;;;;;;5017896;28;19913;-69
2021/12/30 00:12:29;;;;;;;;;;;10.50;99.90;;;;;;5029431;28;19979;-69
2021/12/30 00:14:54;;;;;;;;;;;10.50;99.90;;;;;;5029561;28;19953;-69
2021/12/30 00:17:20;;;;;;;;;;;10.60;99.90;;;;;;5011345;28;19966;-69
2021/12/30 00:19:45;;;;;;;;;;;10.60;99.90;;;;;;5013987;28;20348;-68
2021/12/30 00:22:11;;;;;;;;;;;10.70;99.90;;;;;;5028112;28;19917;-70
2021/12/30 00:24:36;;;;;;;;;;;10.70;99.90;;;;;;5027100;28;20449;-69
2021/12/30 00:27:02;;;;;;;;;;;10.80;99.90;;;;;;5037287;28;20447;-71
2021/12/30 00:29:28;;;;;;;;;;;10.80;99.90;;;;;;5045518;28;19925;-71
2021/12/30 00:31:53;;;;;;;;;;;10.90;99.90;;;;;;5040174;28;20283;-70
2021/12/30 00:34:19;;;;;;;;;;;11.00;99.90;;;;;;5032955;28;19909;-71
2021/12/30 00:36:44;;;;;;;;;;;11.00;99.90;;;;;;5045347;28;19995;-72
2021/12/30 00:39:10;;;;;;;;;;;11.10;99.90;;;;;;5044149;28;20070;-72
2021/12/30 00:41:35;;;;;;;;;;;11.10;99.90;;;;;;5026050;28;20379;-70
2021/12/30 00:44:01;;;;;;;;;;;11.10;99.90;;;;;;5027354;28;19917;-72
2021/12/30 00:46:27;;;;;;;;;;;11.20;99.90;;;;;;5031184;28;19925;-70
2021/12/30 00:48:52;;;;;;;;;;;11.20;99.90;;;;;;5032071;28;19924;-71
2021/12/30 00:51:18;;;;;;;;;;;11.20;99.90;;;;;;5029645;28;20344;-69
2021/12/30 00:53:44;;;;;;;;;;;11.20;99.90;;;;;;5036333;28;19931;-72
2021/12/30 00:56:09;;;;;;;;;;;11.30;99.90;;;;;;5038482;28;19913;-69
2021/12/30 00:58:35;;;;;;;;;;;11.30;99.90;;;;;;5047726;28;19913;-71
2021/12/30 01:01:03;;;;;;;;;;;11.30;99.90;;;;;;5046576;28;19924;-70
2021/12/30 01:03:29;;;;;;;;;;;11.30;99.90;;;;;;5028960;28;19913;-70
2021/12/30 01:05:54;;;;;;;;;;;11.30;99.90;;;;;;5028223;28;19913;-70
2021/12/30 01:08:20;;;;;;;;;;;11.30;99.90;;;;;;5029397;28;19935;-70
2021/12/30 01:10:46;;;;;;;;;;;11.30;99.90;;;;;;5034441;28;19987;-71
2021/12/30 01:13:17;;;;;;;;;;;11.40;99.90;;;;;;5029692;28;20116;-72
2021/12/30 01:15:56;;;;;;;;;;;11.40;99.90;;;;;;5021707;28;19917;-71
2021/12/30 01:18:33;;;;;;;;;;;11.40;99.90;;;;;;5022965;28;19920;-72
2021/12/30 01:20:58;;;;;;;;;;;11.40;99.90;;;;;;5011205;28;19909;-72
2021/12/30 01:23:25;;;;;;;;;;;11.50;99.90;;;;;;5035260;28;20279;-70
2021/12/30 01:25:51;;;;;;;;;;;11.60;99.90;;;;;;5029684;28;19905;-77
2021/12/30 01:28:16;;;;;;;;;;;11.60;99.90;;;;;;5037684;28;19919;-75
2021/12/30 01:30:42;;;;;;;;;;;11.60;99.90;;;;;;5031806;28;19921;-72
2021/12/30 01:33:07;;;;;;;;;;;11.60;99.90;;;;;;5036315;28;19976;-69
2021/12/30 01:35:33;;;;;;;;;;;11.70;99.90;;;;;;5032194;28;19970;-71
2021/12/30 01:38:00;;;;;;;;;;;11.70;99.90;;;;;;5033040;28;19936;-71
2021/12/30 01:40:27;;;;;;;;;;;11.80;99.90;;;;;;5033475;28;19944;-71
2021/12/30 01:42:52;;;;;;;;;;;11.80;99.90;;;;;;5032776;28;19944;-72
2021/12/30 01:45:18;;;;;;;;;;;11.80;99.90;;;;;;5037378;28;19913;-74
2021/12/30 01:47:50;;;;;;;;;;;11.80;99.90;;;;;;5014733;28;20019;-69
2021/12/30 01:50:17;;;;;;;;;;;11.90;99.90;;;;;;5036475;28;19960;-69
2021/12/30 01:52:42;;;;;;;;;;;11.90;99.90;;;;;;5036785;28;19927;-71
2021/12/30 01:55:09;;;;;;;;;;;12.00;99.90;;;;;;5040904;28;20021;-70
2021/12/30 01:57:35;;;;;;;;;;;12.00;99.90;;;;;;5043151;28;19970;-70
2021/12/30 02:00:01;;;;;;;;;;;11.90;99.90;;;;;;5039534;28;20008;-69
2021/12/30 02:02:26;;;;;;;;;;;12.00;99.90;;;;;;5047521;28;20554;-71
2021/12/30 02:04:52;;;;;;;;;;;12.00;99.90;;;;;;5042784;28;19917;-71
2021/12/30 02:07:18;;;;;;;;;;;12.10;99.90;;;;;;5029589;28;19913;-69
2021/12/30 02:09:43;;;;;;;;;;;12.00;99.90;;;;;;5030974;28;19937;-74
2021/12/30 02:12:09;;;;;;;;;;;12.00;99.90;;;;;;5041431;28;19909;-70
2021/12/30 02:14:35;;;;;;;;;;;12.00;99.90;;;;;;5045372;28;19917;-70
2021/12/30 02:17:01;;;;;;;;;;;12.00;99.90;;;;;;5029415;28;19963;-70
2021/12/30 02:19:27;;;;;;;;;;;12.00;99.90;;;;;;5030257;28;20358;-72
2021/12/30 02:21:53;;;;;;;;;;;12.00;99.90;;;;;;5029361;28;19921;-72
2021/12/30 02:24:18;;;;;;;;;;;12.00;99.90;;;;;;5029595;28;19909;-72
2021/12/30 02:26:44;;;;;;;;;;;12.10;99.90;;;;;;5033587;28;19963;-71
2021/12/30 02:29:09;;;;;;;;;;;12.10;99.90;;;;;;5043462;28;19924;-71
2021/12/30 02:31:35;;;;;;;;;;;12.20;99.90;;;;;;5048090;28;19909;-70
2021/12/30 02:34:01;;;;;;;;;;;12.20;99.90;;;;;;5039369;28;19948;-70
2021/12/30 02:36:28;;;;;;;;;;;12.20;99.90;;;;;;5037882;28;20016;-70
2021/12/30 02:38:54;;;;;;;;;;;12.30;99.90;;;;;;5056972;28;20377;-70
2021/12/30 02:41:20;;;;;;;;;;;12.30;99.90;;;;;;5049656;28;20012;-70
2021/12/30 02:43:50;;;;;;;;;;;12.30;99.90;;;;;;5029858;28;19920;-71
2021/12/30 02:46:22;;;;;;;;;;;12.40;99.90;;;;;;5044424;28;19951;-69
2021/12/30 02:48:52;;;;;;;;;;;12.40;99.90;;;;;;5048700;28;20386;-70
2021/12/30 02:51:18;;;;;;;;;;;12.30;99.90;;;;;;5048217;28;20310;-70
2021/12/30 02:53:44;;;;;;;;;;;12.40;99.90;;;;;;5030455;28;20223;-72
2021/12/30 02:56:09;;;;;;;;;;;12.40;99.90;;;;;;5032303;28;19909;-70
2021/12/30 02:58:35;;;;;;;;;;;12.40;99.90;;;;;;5028633;28;19962;-73
2021/12/30 03:01:15;;;;;;;;;;;12.40;99.90;;;;;;5028372;28;19913;-70
2021/12/30 03:03:41;;;;;;;;;;;12.40;99.90;;;;;;5048663;28;19968;-72
2021/12/30 03:06:08;;;;;;;;;;;12.40;99.90;;;;;;5048195;28;19955;-69
2021/12/30 03:08:35;;;;;;;;;;;12.40;99.90;;;;;;5043590;28;19916;-69
2021/12/30 03:11:01;;;;;;;;;;;12.40;99.90;;;;;;5047796;28;19909;-73
2021/12/30 03:13:31;;;;;;;;;;;12.40;99.90;;;;;;5046524;28;19940;-70
2021/12/30 03:16:02;;;;;;;;;;;12.40;99.90;;;;;;5050396;28;19924;-70
2021/12/30 03:18:28;;;;;;;;;;;12.40;99.90;;;;;;5046012;28;19995;-69
2021/12/30 03:20:53;;;;;;;;;;;12.40;99.90;;;;;;5046697;28;19919;-73
2021/12/30 03:23:19;;;;;;;;;;;12.40;99.90;;;;;;5049118;28;19955;-69
2021/12/30 03:25:44;;;;;;;;;;;12.40;99.90;;;;;;5049642;28;20042;-70
2021/12/30 03:28:10;;;;;;;;;;;12.40;99.90;;;;;;5042427;28;20374;-68
2021/12/30 03:30:35;;;;;;;;;;;12.40;99.90;;;;;;5054624;28;19913;-75
2021/12/30 03:33:01;;;;;;;;;;;12.40;99.90;;;;;;5044121;28;19922;-72
2021/12/30 03:35:26;;;;;;;;;;;12.50;99.90;;;;;;5040648;28;20000;-73
2021/12/30 03:37:52;;;;;;;;;;;12.40;99.90;;;;;;5041843;28;20453;-70
2021/12/30 03:40:17;;;;;;;;;;;12.40;99.90;;;;;;5034722;28;19917;-70
2021/12/30 03:42:43;;;;;;;;;;;12.40;99.90;;;;;;5030053;28;20450;-72
2021/12/30 03:45:10;;;;;;;;;;;12.40;99.90;;;;;;5027080;28;19917;-72
2021/12/30 03:47:40;;;;;;;;;;;12.40;99.90;;;;;;5024090;28;19913;-68
2021/12/30 03:50:13;;;;;;;;;;;12.40;99.90;;;;;;5042666;28;19966;-72
2021/12/30 03:52:38;;;;;;;;;;;12.40;99.90;;;;;;5046815;28;19913;-70
2021/12/30 03:55:04;;;;;;;;;;;12.40;99.90;;;;;;5041982;28;19913;-70
2021/12/30 03:57:29;;;;;;;;;;;12.40;99.90;;;;;;5028466;28;20046;-69
2021/12/30 03:59:55;;;;;;;;;;;12.40;99.90;;;;;;5028594;28;20388;-69
2021/12/30 04:02:20;;;;;;;;;;;12.40;99.90;;;;;;5021198;28;19917;-70
2021/12/30 04:04:46;;;;;;;;;;;12.40;99.90;;;;;;5005654;28;20420;-71
2021/12/30 04:07:11;;;;;;;;;;;12.30;99.90;;;;;;5020728;28;20597;-70
2021/12/30 04:09:37;;;;;;;;;;;12.30;99.90;;;;;;5021338;28;19923;-70
2021/12/30 04:12:03;;;;;;;;;;;12.30;99.90;;;;;;5010742;28;20136;-69
2021/12/30 04:14:29;;;;;;;;;;;12.30;99.90;;;;;;5011351;28;19913;-70
2021/12/30 04:16:55;;;;;;;;;;;12.20;99.90;;;;;;5039021;28;19917;-71
2021/12/30 04:19:20;;;;;;;;;;;12.20;99.90;;;;;;5033318;28;20251;-72
2021/12/30 04:21:46;;;;;;;;;;;12.20;99.90;;;;;;5040024;28;20008;-72
2021/12/30 04:24:12;;;;;;;;;;;12.20;99.90;;;;;;5032540;28;19915;-71
2021/12/30 04:26:37;;;;;;;;;;;12.30;99.90;;;;;;5045028;28;19917;-69
2021/12/30 04:29:04;;;;;;;;;;;12.20;99.90;;;;;;5045877;28;20304;-68
2021/12/30 04:31:30;;;;;;;;;;;12.20;99.90;;;;;;5045280;28;20370;-71
2021/12/30 04:33:56;;;;;;;;;;;12.20;99.90;;;;;;5029400;28;19936;-69
2021/12/30 04:36:21;;;;;;;;;;;12.20;99.90;;;;;;5043342;28;19913;-70
2021/12/30 04:38:47;;;;;;;;;;;12.20;99.90;;;;;;5028770;28;20378;-69
2021/12/30 04:41:13;;;;;;;;;;;12.20;99.90;;;;;;5045593;28;19908;-70
2021/12/30 04:43:39;;;;;;;;;;;12.20;99.90;;;;;;5047211;28;19916;-71
2021/12/30 04:46:05;;;;;;;;;;;12.20;99.90;;;;;;5048355;28;20011;-71
2021/12/30 04:48:30;;;;;;;;;;;12.20;99.90;;;;;;5048451;28;19912;-72
2021/12/30 04:50:56;;;;;;;;;;;12.20;99.90;;;;;;5023288;28;19913;-74
2021/12/30 04:53:21;;;;;;;;;;;12.20;99.90;;;;;;5042020;28;19958;-74
2021/12/30 04:55:48;;;;;;;;;;;12.20;99.90;;;;;;5029745;28;19920;-71
2021/12/30 04:58:14;;;;;;;;;;;12.20;99.90;;;;;;5011255;28;19967;-70
2021/12/30 05:00:40;;;;;;;;;;;12.20;99.90;;;;;;5024579;28;19920;-70
2021/12/30 05:05:52;;;;;;;;;;;12.30;99.90;;;;;;5026284;28;20459;-70
2021/12/30 05:08:19;;;;;;;;;;;12.20;99.90;;;;;;5008107;28;19913;-70
2021/12/30 05:10:45;;;;;;;;;;;12.30;99.90;;;;;;5046652;28;19916;-70
2021/12/30 05:13:13;;;;;;;;;;;12.30;99.90;;;;;;5041819;28;20118;-69
2021/12/30 05:15:42;;;;;;;;;;;12.40;99.90;;;;;;5038520;28;19920;-70
2021/12/30 05:18:09;;;;;;;;;;;12.40;99.90;;;;;;5046261;28;19916;-72
2021/12/30 05:20:35;;;;;;;;;;;12.40;99.90;;;;;;5027886;28;19913;-71
2021/12/30 05:23:00;;;;;;;;;;;12.40;99.90;;;;;;5010137;28;19921;-73
2021/12/30 05:25:26;;;;;;;;;;;12.40;99.90;;;;;;5027859;28;19909;-74
2021/12/30 05:27:52;;;;;;;;;;;12.40;99.90;;;;;;5029622;28;20008;-70
2021/12/30 05:30:18;;;;;;;;;;;12.40;99.90;;;;;;5027759;28;19952;-71
2021/12/30 05:32:44;;;;;;;;;;;12.30;99.90;;;;;;5034112;28;19921;-69
2021/12/30 05:35:11;;;;;;;;;;;12.30;99.90;;;;;;5028830;28;20636;-70
2021/12/30 05:37:36;;;;;;;;;;;12.30;99.90;;;;;;5033645;28;19965;-74
2021/12/30 05:40:03;;;;;;;;;;;12.30;99.90;;;;;;5033336;28;19917;-70
2021/12/30 05:42:29;;;;;;;;;;;12.30;99.90;;;;;;5028469;28;19917;-73
2021/12/30 05:44:54;;;;;;;;;;;12.30;99.90;;;;;;5026920;28;19913;-70
2021/12/30 05:47:20;;;;;;;;;;;12.30;99.90;;;;;;5029192;28;19913;-71
2021/12/30 05:49:46;;;;;;;;;;;12.30;99.90;;;;;;5008054;28;20375;-70
2021/12/30 05:52:12;;;;;;;;;;;12.30;99.90;;;;;;5027211;28;20497;-70
2021/12/30 05:54:38;;;;;;;;;;;12.30;99.90;;;;;;5029841;28;20126;-69
2021/12/30 05:57:04;;;;;;;;;;;12.30;99.90;;;;;;5029993;28;20331;-70
2021/12/30 05:59:29;;;;;;;;;;;12.20;99.90;;;;;;5012543;28;19920;-72
2021/12/30 06:01:55;;;;;;;;;;;12.20;99.90;;;;;;5031655;28;20438;-74
2021/12/30 06:04:20;;;;;;;;;;;12.30;99.90;;;;;;5020916;28;19914;-71
2021/12/30 06:06:46;;;;;;;;;;;12.20;99.90;;;;;;5018022;28;19944;-72
2021/12/30 06:09:11;;;;;;;;;;;12.30;99.90;;;;;;5014981;28;19949;-73
2021/12/30 06:11:37;;;;;;;;;;;12.20;99.90;;;;;;5023600;28;19917;-74
2021/12/30 06:14:03;;;;;;;;;;;12.20;99.90;;;;;;5020941;28;20516;-70
2021/12/30 06:16:28;;;;;;;;;;;12.30;99.90;;;;;;5020178;28;19917;-70
2021/12/30 06:18:54;;;;;;;;;;;12.30;99.90;;;;;;5021143;28;19992;-69
2021/12/30 06:21:19;;;;;;;;;;;12.30;99.90;;;;;;5023254;28;20007;-71
2021/12/30 06:23:45;;;;;;;;;;;12.30;99.90;;;;;;5018441;28;19939;-69
2021/12/30 06:26:10;;;;;;;;;;;12.30;99.90;;;;;;5029119;28;19920;-69
2021/12/30 06:28:36;;;;;;;;;;;12.30;99.90;;;;;;5020105;28;20617;-70
2021/12/30 06:31:01;;;;;;;;;;;12.30;99.90;;;;;;5023296;28;19913;-71
2021/12/30 06:33:26;;;;;;;;;;;12.20;99.90;;;;;;5027101;28;19920;-70
2021/12/30 06:35:52;;;;;;;;;;;12.20;99.90;;;;;;5021068;28;20638;-70
2021/12/30 06:38:18;;;;;;;;;;;12.30;99.90;;;;;;5047145;28;20015;-70
2021/12/30 06:40:43;;;;;;;;;;;12.30;99.90;;;;;;5044874;28;19991;-70
2021/12/30 06:43:09;;;;;;;;;;;12.30;99.90;;;;;;5023136;28;19913;-71
2021/12/30 06:45:34;;;;;;;;;;;12.40;99.90;;;;;;5023260;28;20004;-71
2021/12/30 06:48:00;;;;;;;;;;;12.40;99.90;;;;;;4992080;28;20419;-71
2021/12/30 06:50:31;;;;;;;;;;;12.40;99.90;;;;;;5001341;28;19916;-71
2021/12/30 06:52:56;;;;;;;;;;;12.40;99.90;;;;;;5019901;28;20339;-70
2021/12/30 06:55:22;;;;;;;;;;;12.50;99.90;;;;;;5019638;28;19909;-70
2021/12/30 06:57:47;;;;;;;;;;;12.50;99.90;;;;;;5013507;28;20004;-69
2021/12/30 07:00:13;;;;;;;;;;;12.50;99.90;;;;;;5010572;28;19913;-71
2021/12/30 07:02:40;;;;;;;;;;;12.50;99.90;;;;;;5000372;28;20354;-70
2021/12/30 07:05:05;;;;;;;;;;;12.50;99.90;;;;;;5023328;28;19956;-70
2021/12/30 07:07:31;;;;;;;;;;;12.50;99.90;;;;;;5035257;28;20321;-69
2021/12/30 07:09:56;;;;;;;;;;;12.50;99.90;;;;;;5032541;28;19909;-70
2021/12/30 07:12:22;;;;;;;;;;;12.50;99.90;;;;;;5026881;28;20008;-70
2021/12/30 07:14:47;;;;;;;;;;;12.50;99.90;;;;;;5026368;28;19909;-70
2021/12/30 07:17:13;;;;;;;;;;;12.50;99.90;;;;;;5024223;28;20091;-70
2021/12/30 07:19:38;;;;;;;;;;;12.60;99.90;;;;;;5030401;28;19913;-70
2021/12/30 07:22:04;;;;;;;;;;;12.50;99.90;;;;;;5025292;28;19920;-70
2021/12/30 07:24:29;;;;;;;;;;;12.60;99.90;;;;;;5026669;28;19968;-71
2021/12/30 07:26:55;;;;;;;;;;;12.60;99.90;;;;;;5026556;28;19909;-71
2021/12/30 07:29:20;;;;;;;;;;;12.60;99.90;;;;;;5037450;28;19971;-69
2021/12/30 07:31:46;;;;;;;;;;;12.70;99.90;;;;;;5043964;28;19909;-69
2021/12/30 07:34:11;;;;;;;;;;;12.70;99.90;;;;;;5008943;28;20442;-69
2021/12/30 07:36:37;;;;;;;;;;;12.70;99.90;;;;;;5027065;28;19917;-67
2021/12/30 07:39:03;;;;;;;;;;;12.70;99.90;;;;;;5027018;28;20309;-71
2021/12/30 07:41:28;;;;;;;;;;;12.70;99.90;;;;;;5008574;28;19965;-71
2021/12/30 07:43:54;;;;;;;;;;;12.80;99.90;;;;;;5027404;28;19914;-72
2021/12/30 07:46:19;;;;;;;;;;;12.80;99.90;;;;;;5026775;28;19917;-71
2021/12/30 07:48:45;;;;;;;;;;;12.80;99.90;;;;;;5026447;28;20016;-69
2021/12/30 07:51:10;;;;;;;;;;;12.80;99.90;;;;;;5027107;28;20416;-72
2021/12/30 07:53:37;;;;;;;;;;;12.80;99.90;;;;;;5027590;28;19913;-69
2021/12/30 07:56:03;;;;;;;;;;;12.80;99.90;;;;;;5010935;28;19952;-70
2021/12/30 07:58:28;;;;;;;;;;;12.80;99.90;;;;;;5031000;28;19956;-69
2021/12/30 08:00:54;;;;;;;;;;;12.70;99.90;;;;;;5036662;28;19972;-70
2021/12/30 08:03:19;;;;;;;;;;;12.80;99.90;;;;;;5034441;28;19909;-70
2021/12/30 08:05:45;;;;;;;;;;;12.70;99.90;;;;;;5018089;28;19935;-68
2021/12/30 08:08:11;;;;;;;;;;;12.70;99.90;;;;;;5019373;28;19917;-70
2021/12/30 08:10:37;;;;;;;;;;;12.70;99.90;;;;;;5034801;28;20258;-70
2021/12/30 08:13:02;;;;;;;;;;;12.80;99.90;;;;;;5033377;28;19909;-69
2021/12/30 08:15:28;;;;;;;;;;;12.70;99.90;;;;;;5034996;28;19913;-69
2021/12/30 08:17:54;;;;;;;;;;;12.70;99.90;;;;;;5034408;28;19917;-68
2021/12/30 08:20:22;;;;;;;;;;;12.70;99.90;;;;;;5035908;28;20194;-69
2021/12/30 08:22:48;;;;;;;;;;;12.80;99.90;;;;;;5043416;28;20039;-71
2021/12/30 08:25:13;;;;;;;;;;;12.80;99.90;;;;;;5038977;28;19913;-71
2021/12/30 08:27:39;;;;;;;;;;;12.80;99.90;;;;;;5029193;28;19909;-71
2021/12/30 08:30:07;;;;;;;;;;;12.80;99.90;;;;;;5027821;28;19916;-71
2021/12/30 08:32:32;;;;;;;;;;;12.90;99.90;;;;;;5030212;28;19996;-70
2021/12/30 08:34:57;;;;;;;;;;;12.90;99.90;;;;;;5027064;28;20398;-73
2021/12/30 08:37:23;;;;;;;;;;;12.90;99.90;;;;;;5025289;28;19917;-69
2021/12/30 08:39:49;;;;;;;;;;;12.90;99.90;;;;;;5025509;28;19936;-70
2021/12/30 08:42:19;;;;;;;;;;;13.00;99.90;;;;;;5026356;28;19909;-70
2021/12/30 08:44:44;;;;;;;;;;;12.90;99.90;;;;;;5026424;28;20374;-69
2021/12/30 08:47:10;;;;;;;;;;;13.00;99.90;;;;;;5025851;28;19909;-69
2021/12/30 08:49:35;;;;;;;;;;;13.00;99.90;;;;;;5025837;28;20393;-74
2021/12/30 08:52:01;;;;;;;;;;;13.00;99.90;;;;;;5027025;28;19963;-74
2021/12/30 08:54:26;;;;;;;;;;;13.00;99.90;;;;;;5028325;28;19910;-71
2021/12/30 08:56:52;;;;;;;;;;;13.00;99.90;;;;;;5025800;28;20020;-74
2021/12/30 08:59:17;;;;;;;;;;;13.00;99.90;;;;;;5027041;28;20047;-71
2021/12/30 09:01:43;;;;;;;;;;;13.10;99.90;;;;;;5027497;28;19919;-70
2021/12/30 09:04:08;;;;;;;;;;;13.10;99.90;;;;;;5027022;28;19917;-70
2021/12/30 09:06:34;;;;;;;;;;;13.20;99.90;;;;;;5031332;28;20395;-70
2021/12/30 09:08:59;;;;;;;;;;;13.20;99.90;;;;;;5034584;28;19909;-69
2021/12/30 09:11:25;;;;;;;;;;;13.20;99.90;;;;;;5034707;28;19909;-70
2021/12/30 09:13:50;;;;;;;;;;;13.30;99.90;;;;;;5034853;28;19978;-70
2021/12/30 09:16:16;;;;;;;;;;;13.30;99.90;;;;;;5033232;28;19916;-70
2021/12/30 09:18:42;;;;;;;;;;;13.30;99.90;;;;;;5032135;28;19921;-69
2021/12/30 09:21:08;;;;;;;;;;;13.40;99.90;;;;;;5031945;28;19913;-68
2021/12/30 09:23:33;;;;;;;;;;;13.40;99.90;;;;;;5032458;28;19913;-70
2021/12/30 09:25:59;;;;;;;;;;;13.30;99.90;;;;;;5030448;28;20433;-69
2021/12/30 09:28:24;;;;;;;;;;;13.40;99.90;;;;;;5030020;28;20198;-70
2021/12/30 09:30:51;;;;;;;;;;;13.40;99.90;;;;;;5029166;28;19979;-69
2021/12/30 09:33:16;;;;;;;;;;;13.50;99.90;;;;;;5037247;28;19909;-73
2021/12/30 09:35:47;;;;;;;;;;;13.50;99.90;;;;;;5048669;28;19913;-73
2021/12/30 09:38:13;;;;;;;;;;;13.50;99.90;;;;;;5042797;28;19964;-69
2021/12/30 09:40:38;;;;;;;;;;;13.50;99.90;;;;;;5034320;28;20274;-68
2021/12/30 09:43:04;;;;;;;;;;;13.50;99.90;;;;;;5031108;28;19913;-69
2021/12/30 09:45:31;;;;;;;;;;;13.50;99.90;;;;;;5030194;28;19924;-71
2021/12/30 09:47:58;;;;;;;;;;;13.50;99.90;;;;;;5028945;28;19984;-69
2021/12/30 09:50:26;;;;;;;;;;;13.50;99.90;;;;;;5030460;28;20175;-69
2021/12/30 09:52:52;;;;;;;;;;;13.40;99.90;;;;;;5030101;28;19963;-67
2021/12/30 09:55:18;;;;;;;;;;;13.40;99.90;;;;;;5031544;28;20426;-69
2021/12/30 09:57:43;;;;;;;;;;;13.40;99.90;;;;;;5030976;28;19980;-72
2021/12/30 10:00:10;;;;;;;;;;;13.40;99.90;;;;;;5032098;28;20397;-68
2021/12/30 10:02:36;;;;;;;;;;;13.40;99.90;;;;;;5020495;28;19909;-69
2021/12/30 10:05:07;;;;;;;;;;;13.40;99.90;;;;;;5040316;28;19916;-70
2021/12/30 10:07:34;;;;;;;;;;;13.40;99.90;;;;;;5042781;28;19909;-69
2021/12/30 10:10:02;;;;;;;;;;;13.40;99.90;;;;;;5031901;28;19944;-72
2021/12/30 10:12:32;;;;;;;;;;;13.40;99.90;;;;;;5030221;28;19909;-70
2021/12/30 10:14:57;;;;;;;;;;;13.40;99.90;;;;;;5012579;28;19909;-71
2021/12/30 10:17:26;;;;;;;;;;;13.40;99.90;;;;;;5028160;28;20024;-69
2021/12/30 10:19:53;;;;;;;;;;;13.40;99.90;;;;;;5028680;28;19915;-71
2021/12/30 10:22:21;;;;;;;;;;;13.40;99.90;;;;;;5028551;28;19944;-70
2021/12/30 10:24:47;;;;;;;;;;;13.40;99.90;;;;;;5029097;28;19909;-72
2021/12/30 10:27:42;;;;;;;;;;;13.40;99.90;;;;;;5034095;28;20123;-70
2021/12/30 10:30:08;;;;;;;;;;;13.40;99.90;;;;;;5006541;28;19917;-70
2021/12/30 10:32:33;;;;;;;;;;;13.40;99.90;;;;;;5024853;28;19920;-70
2021/12/30 10:35:07;;;;;;;;;;;13.40;99.90;;;;;;5043724;28;19909;-70
2021/12/30 10:37:33;;;;;;;;;;;13.40;99.90;;;;;;5040144;28;19979;-69
2021/12/30 10:39:59;;;;;;;;;;;13.50;99.90;;;;;;5038936;28;19913;-67
2021/12/30 10:42:29;;;;;;;;;;;13.50;99.90;;;;;;5037176;28;19963;-68
2021/12/30 10:44:55;;;;;;;;;;;13.40;99.90;;;;;;5034012;28;19962;-68
2021/12/30 10:47:21;;;;;;;;;;;13.50;99.90;;;;;;5030346;28;19909;-70
2021/12/30 10:50:10;;;;;;;;;;;13.50;99.90;;;;;;5028599;28;20390;-70
2021/12/30 10:52:45;;;;;;;;;;;13.50;99.90;;;;;;5020850;28;19948;-72
2021/12/30 10:55:11;;;;;;;;;;;13.50;99.90;;;;;;5029368;28;19913;-73
2021/12/30 10:57:37;;;;;;;;;;;13.50;99.90;;;;;;5031296;28;20150;-74
2021/12/30 11:00:03;;;;;;;;;;;13.50;99.90;;;;;;5012758;28;20313;-71
2021/12/30 11:02:28;;;;;;;;;;;13.50;99.90;;;;;;5031064;28;20471;-68
2021/12/30 11:05:00;;;;;;;;;;;13.60;99.90;;;;;;5031357;28;19916;-69
2021/12/30 11:07:27;;;;;;;;;;;13.50;99.90;;;;;;5029518;28;19940;-70
2021/12/30 11:09:56;;;;;;;;;;;13.60;99.90;;;;;;5011773;28;19916;-68
2021/12/30 11:12:23;;;;;;;;;;;13.60;99.90;;;;;;5033573;28;19909;-71
2021/12/30 11:14:49;;;;;;;;;;;13.60;99.90;;;;;;5030165;28;20359;-70
2021/12/30 11:17:17;;;;;;;;;;;13.60;99.90;;;;;;5011672;28;19992;-73
2021/12/30 11:19:47;;;;;;;;;;;13.60;99.90;;;;;;5030422;28;19916;-71
2021/12/30 11:22:17;;;;;;;;;;;13.60;99.90;;;;;;5036328;28;19920;-70
2021/12/30 11:24:44;;;;;;;;;;;13.70;99.90;;;;;;5029830;28;20286;-70
2021/12/30 11:27:10;;;;;;;;;;;13.70;99.90;;;;;;5012687;28;20305;-68
2021/12/30 11:29:37;;;;;;;;;;;13.70;99.90;;;;;;5030804;28;19917;-69
2021/12/30 11:32:03;;;;;;;;;;;13.70;99.90;;;;;;5031376;28;20182;-69
2021/12/30 11:34:29;;;;;;;;;;;13.80;99.90;;;;;;5031319;28;19909;-70
2021/12/30 11:36:55;;;;;;;;;;;13.80;99.90;;;;;;5031016;28;19913;-69
2021/12/30 11:39:22;;;;;;;;;;;13.80;99.90;;;;;;5029593;28;20213;-70
2021/12/30 11:41:53;;;;;;;;;;;13.80;99.90;;;;;;5030573;28;19920;-69
2021/12/30 11:44:50;;;;;;;;;;;13.90;99.90;;;;;;5032643;28;19944;-70
2021/12/30 11:47:31;;;;;;;;;;;14.00;99.90;;;;;;5008867;28;20001;-72
2021/12/30 11:50:03;;;;;;;;;;;14.00;99.90;;;;;;5037821;28;19909;-69
2021/12/30 11:52:44;;;;;;;;;;;14.00;99.90;;;;;;5043355;28;19992;-69
2021/12/30 11:55:29;;;;;;;;;;;14.00;99.90;;;;;;5034659;28;19983;-68
2021/12/30 11:57:54;;;;;;;;;;;14.00;99.90;;;;;;5030675;28;19917;-71
2021/12/30 12:00:35;;;;;;;;;;;14.00;99.90;;;;;;5031074;28;19921;-72
2021/12/30 12:03:02;;;;;;;;;;;14.00;99.90;;;;;;5013389;28;19909;-69
2021/12/30 12:05:41;;;;;;;;;;;14.00;99.90;;;;;;5032137;28;19909;-69
2021/12/30 12:08:11;;;;;;;;;;;14.00;99.90;;;;;;5030643;28;19909;-70
2021/12/30 12:10:37;;;;;;;;;;;13.90;99.90;;;;;;5030068;28;19935;-70
2021/12/30 12:13:21;;;;;;;;;;;13.90;99.90;;;;;;5033140;28;19918;-69
2021/12/30 12:15:47;;;;;;;;;;;13.90;99.90;;;;;;5031179;28;19931;-69
2021/12/30 12:18:12;;;;;;;;;;;13.90;99.90;;;;;;5031996;28;20019;-69
2021/12/30 12:20:49;;;;;;;;;;;13.90;99.90;;;;;;5031980;28;19955;-70
2021/12/30 12:23:33;;;;;;;;;;;13.90;99.90;;;;;;5030641;28;19936;-72
2021/12/30 12:26:14;;;;;;;;;;;13.80;99.90;;;;;;5040098;28;19909;-71
2021/12/30 12:28:41;;;;;;;;;;;13.80;99.90;;;;;;5023123;28;19913;-70
2021/12/30 12:31:08;;;;;;;;;;;13.80;99.90;;;;;;5029900;28;20008;-70
2021/12/30 12:33:34;;;;;;;;;;;13.80;99.90;;;;;;5029322;28;19916;-70
2021/12/30 12:36:01;;;;;;;;;;;13.80;99.90;;;;;;5027863;28;19941;-70
2021/12/30 12:38:39;;;;;;;;;;;13.80;99.90;;;;;;5028223;28;19913;-70
2021/12/30 12:41:24;;;;;;;;;;;13.70;99.90;;;;;;5030922;28;19913;-69
2021/12/30 12:43:51;;;;;;;;;;;13.70;99.90;;;;;;5030352;28;19964;-70
2021/12/30 12:46:16;;;;;;;;;;;13.70;99.90;;;;;;5028626;28;19909;-70
2021/12/30 12:48:52;;;;;;;;;;;13.70;99.90;;;;;;5028866;28;19920;-70
2021/12/30 12:51:20;;;;;;;;;;;13.70;99.90;;;;;;5030105;28;19915;-69
2021/12/30 12:53:47;;;;;;;;;;;13.80;99.90;;;;;;5029136;28;20099;-69
2021/12/30 12:56:20;;;;;;;;;;;13.80;99.90;;;;;;5027713;28;19913;-70
2021/12/30 12:58:51;;;;;;;;;;;13.80;99.90;;;;;;5026609;28;19917;-70
2021/12/30 13:01:21;;;;;;;;;;;13.80;99.90;;;;;;5028480;28;19916;-70
2021/12/30 13:03:47;;;;;;;;;;;13.80;99.90;;;;;;5029238;28;19913;-70
2021/12/30 13:06:15;;;;;;;;;;;13.90;99.90;;;;;;5029104;28;19909;-69
2021/12/30 13:08:42;;;;;;;;;;;13.90;99.90;;;;;;5025558;28;19953;-70
2021/12/30 13:11:09;;;;;;;;;;;14.00;99.90;;;;;;5026986;28;19916;-72
2021/12/30 13:13:36;;;;;;;;;;;14.00;99.90;;;;;;5026164;28;20075;-70
2021/12/30 13:16:06;;;;;;;;;;;14.00;99.90;;;;;;5029111;28;19909;-70
2021/12/30 13:18:33;;;;;;;;;;;14.00;99.90;;;;;;5030479;28;20000;-70
2021/12/30 13:21:11;;;;;;;;;;;14.10;99.90;;;;;;5027577;28;19913;-70
2021/12/30 13:23:36;;;;;;;;;;;14.00;99.90;;;;;;5029588;28;19941;-71
2021/12/30 13:26:07;;;;;;;;;;;14.10;99.90;;;;;;5027914;28;19916;-71
2021/12/30 13:28:44;;;;;;;;;;;14.10;99.90;;;;;;5026534;28;19913;-71
2021/12/30 13:31:11;;;;;;;;;;;14.10;99.90;;;;;;5027084;28;19909;-71
2021/12/30 13:33:36;;;;;;;;;;;14.00;99.90;;;;;;5010774;28;19944;-70
2021/12/30 13:36:12;;;;;;;;;;;14.10;99.90;;;;;;5009029;28;19944;-70
2021/12/30 13:38:38;;;;;;;;;;;14.10;99.90;;;;;;5025935;28;19963;-69
2021/12/30 13:41:10;;;;;;;;;;;14.10;99.90;;;;;;5025599;28;19913;-70
2021/12/30 13:43:35;;;;;;;;;;;14.00;99.90;;;;;;5024658;28;19910;-71
2021/12/30 13:46:02;;;;;;;;;;;14.00;99.90;;;;;;5025845;28;19909;-71
2021/12/30 13:48:30;;;;;;;;;;;14.00;99.90;;;;;;5007786;28;19909;-71
2021/12/30 13:50:57;;;;;;;;;;;14.00;99.90;;;;;;5007656;28;19913;-69
2021/12/30 13:53:24;;;;;;;;;;;14.00;99.90;;;;;;5029231;28;20287;-70
2021/12/30 13:55:51;;;;;;;;;;;14.00;99.90;;;;;;5027989;28;20353;-72
2021/12/30 13:58:24;;;;;;;;;;;14.00;99.90;;;;;;5010807;28;20493;-71
2021/12/30 14:00:52;;;;;;;;;;;14.00;99.90;;;;;;5029418;28;19910;-72
2021/12/30 14:03:20;;;;;;;;;;;14.00;99.90;;;;;;5031896;28;19920;-68
2021/12/30 14:05:48;;;;;;;;;;;14.00;99.90;;;;;;5018697;28;20369;-70
2021/12/30 14:08:16;;;;;;;;;;;14.00;99.90;;;;;;5016480;28;19932;-71
2021/12/30 14:10:43;;;;;;;;;;;14.00;99.90;;;;;;5031864;28;20358;-71
2021/12/30 14:13:08;;;;;;;;;;;14.00;99.90;;;;;;5030919;28;19963;-69
2021/12/30 14:15:35;;;;;;;;;;;14.00;99.90;;;;;;5030188;28;19917;-71
2021/12/30 14:18:05;;;;;;;;;;;14.00;99.90;;;;;;5029913;28;19914;-67